Time;durP1;ratioP1;P1;durP2;ratioP2;P2;SDS_P1;SDS_P2;PMS_P1;PMS_P2;Temp;Humidity;BMP_temperature;BMP_pressure;BME280_temperature;BME280_humidity;BME280_pressure;Samples;Min_cycle;Max_cycle;Signal;HPM_P1;HPM_P2
2022/04/04 00:01:12;;;;;;;18.40;10.30;;;21.30;79.00;;;;;;1898235;75;21132;-78
2022/04/04 00:03:45;;;;;;;15.58;10.40;;;21.30;79.00;;;;;;1895346;75;21078;-78
2022/04/04 00:06:16;;;;;;;16.95;10.28;;;21.30;79.10;;;;;;1891491;75;21129;-80
2022/04/04 00:08:47;;;;;;;18.45;10.75;;;21.30;79.50;;;;;;1903970;75;21672;-79
2022/04/04 00:11:18;;;;;;;19.17;10.72;;;21.30;79.00;;;;;;1895827;74;21643;-78
2022/04/04 00:13:49;;;;;;;16.77;10.63;;;21.40;80.20;;;;;;1891005;75;21097;-79
2022/04/04 00:16:20;;;;;;;18.23;12.55;;;21.50;79.30;;;;;;1898645;75;21096;-79
2022/04/04 00:18:51;;;;;;;18.10;11.78;;;21.40;79.10;;;;;;1892696;74;21516;-80
2022/04/04 00:21:22;;;;;;;19.45;11.95;;;21.40;80.30;;;;;;1893741;75;21525;-80
2022/04/04 00:23:52;;;;;;;19.77;12.82;;;21.50;79.30;;;;;;1894422;75;21081;-80
2022/04/04 00:26:24;;;;;;;21.27;12.63;;;21.50;79.00;;;;;;1900092;75;21124;-80
2022/04/04 00:28:55;;;;;;;20.88;12.35;;;21.60;79.40;;;;;;1895553;75;21080;-79
2022/04/04 00:31:26;;;;;;;18.90;12.45;;;21.60;79.30;;;;;;1895244;75;21197;-79
2022/04/04 00:33:57;;;;;;;19.73;13.88;;;21.60;79.30;;;;;;1902025;75;21556;-78
2022/04/04 00:36:28;;;;;;;20.35;11.80;;;21.60;79.30;;;;;;1900331;75;21120;-79
2022/04/04 00:38:59;;;;;;;17.62;12.18;;;21.60;79.40;;;;;;1898018;75;21162;-79
2022/04/04 00:41:30;;;;;;;24.18;12.40;;;21.60;79.50;;;;;;1899638;75;21374;-79
2022/04/04 00:44:01;;;;;;;19.70;11.85;;;21.60;79.40;;;;;;1895167;75;21100;-78
2022/04/04 00:46:31;;;;;;;19.67;10.78;;;21.60;79.10;;;;;;1900983;75;21071;-79
2022/04/04 00:49:03;;;;;;;23.65;10.82;;;21.60;79.10;;;;;;1902975;75;21539;-80
2022/04/04 00:51:34;;;;;;;16.87;10.18;;;21.70;79.10;;;;;;1902847;75;21051;-78
2022/04/04 00:54:06;;;;;;;16.00;10.60;;;21.70;79.20;;;;;;1902900;75;21532;-78
2022/04/04 00:56:39;;;;;;;17.50;9.90;;;21.70;78.10;;;;;;1901907;75;21180;-78
2022/04/04 00:59:13;;;;;;;17.40;10.88;;;21.70;78.30;;;;;;1902073;75;21135;-80
2022/04/04 01:01:47;;;;;;;16.73;10.35;;;21.80;78.00;;;;;;1885514;75;21205;-80
2022/04/04 01:04:16;;;;;;;18.52;10.93;;;21.80;77.90;;;;;;1891357;75;21562;-80
2022/04/04 01:06:47;;;;;;;20.17;11.22;;;21.90;77.60;;;;;;1889721;75;21114;-79
2022/04/04 01:09:20;;;;;;;19.85;11.18;;;21.90;77.70;;;;;;1892604;75;21085;-80
2022/04/04 01:11:53;;;;;;;19.12;10.68;;;21.80;77.50;;;;;;1893674;75;21128;-78
2022/04/04 01:14:24;;;;;;;18.87;10.28;;;21.80;77.60;;;;;;1901076;74;21514;-79
2022/04/04 01:16:55;;;;;;;15.28;10.05;;;21.90;77.50;;;;;;1902827;75;21093;-78
2022/04/04 01:19:28;;;;;;;21.65;11.15;;;21.90;77.40;;;;;;1900090;75;21223;-79
2022/04/04 01:21:59;;;;;;;16.95;9.85;;;22.00;77.00;;;;;;1902542;75;21114;-79
2022/04/04 01:24:30;;;;;;;16.02;10.70;;;21.90;77.20;;;;;;1897851;75;21077;-79
2022/04/04 01:27:01;;;;;;;18.45;9.73;;;22.00;76.90;;;;;;1895839;75;21045;-78
2022/04/04 01:29:32;;;;;;;16.82;8.98;;;22.00;76.10;;;;;;1893825;75;21576;-79
2022/04/04 01:32:04;;;;;;;19.27;10.48;;;22.10;76.10;;;;;;1894093;75;21629;-79
2022/04/04 01:34:35;;;;;;;14.03;8.78;;;22.10;75.80;;;;;;1880557;75;21484;-79
2022/04/04 01:37:06;;;;;;;15.25;8.40;;;22.10;75.50;;;;;;1889515;75;21137;-78
2022/04/04 01:39:37;;;;;;;16.62;8.65;;;22.20;75.70;;;;;;1902862;75;21152;-79
2022/04/04 01:42:08;;;;;;;12.90;8.05;;;22.30;76.30;;;;;;1902574;75;21186;-79
2022/04/04 01:44:39;;;;;;;17.40;9.10;;;22.30;74.10;;;;;;1903057;75;21076;-78
2022/04/04 01:47:10;;;;;;;14.33;8.10;;;22.30;74.10;;;;;;1895434;75;21142;-79
2022/04/04 01:49:41;;;;;;;11.55;7.10;;;22.40;71.80;;;;;;1885719;75;21190;-79
2022/04/04 01:52:12;;;;;;;18.25;7.90;;;22.40;72.30;;;;;;1901644;75;21082;-80
2022/04/04 01:54:43;;;;;;;14.70;7.75;;;22.50;72.60;;;;;;1902461;75;21146;-79
2022/04/04 01:57:14;;;;;;;16.50;9.13;;;22.50;72.70;;;;;;1894608;75;21566;-79
2022/04/04 01:59:45;;;;;;;11.88;7.75;;;22.60;71.60;;;;;;1893998;75;21206;-77
2022/04/04 02:02:16;;;;;;;13.95;7.55;;;22.60;71.30;;;;;;1901170;75;21861;-79
2022/04/04 02:04:47;;;;;;;15.25;6.97;;;22.60;70.30;;;;;;1887546;75;21896;-80
2022/04/04 02:07:18;;;;;;;11.12;6.70;;;22.70;70.20;;;;;;1895866;75;21649;-80
2022/04/04 02:09:48;;;;;;;12.80;6.37;;;22.70;70.30;;;;;;1885006;75;21584;-79
2022/04/04 02:12:19;;;;;;;15.75;7.12;;;22.70;70.40;;;;;;1903180;75;21583;-81
2022/04/04 02:14:51;;;;;;;13.90;7.20;;;22.80;70.70;;;;;;1874911;75;21684;-79
2022/04/04 02:17:22;;;;;;;13.03;6.60;;;22.90;69.30;;;;;;1889730;75;21060;-80
2022/04/04 02:19:53;;;;;;;14.00;7.30;;;22.90;69.40;;;;;;1885495;75;21072;-81
2022/04/04 02:22:23;;;;;;;15.23;7.00;;;23.00;70.10;;;;;;1891251;75;21207;-80
2022/04/04 02:24:54;;;;;;;15.65;7.00;;;23.00;68.80;;;;;;1887708;75;21055;-80
2022/04/04 02:27:25;;;;;;;11.60;6.42;;;23.10;68.80;;;;;;1899598;75;21293;-80
2022/04/04 02:29:57;;;;;;;10.95;6.62;;;23.10;68.50;;;;;;1890020;74;21071;-81
2022/04/04 02:32:29;;;;;;;12.03;7.03;;;23.10;68.60;;;;;;1885469;75;21137;-81
2022/04/04 02:35:00;;;;;;;17.67;7.35;;;23.10;68.80;;;;;;1891481;75;21578;-81
2022/04/04 02:37:31;;;;;;;12.88;7.28;;;23.20;68.40;;;;;;1898845;75;21193;-82
2022/04/04 02:40:02;;;;;;;13.88;7.37;;;23.20;68.10;;;;;;1882742;75;21175;-80
2022/04/04 02:42:33;;;;;;;12.15;6.53;;;23.30;67.40;;;;;;1893060;75;21598;-79
2022/04/04 02:45:05;;;;;;;14.30;6.70;;;23.30;69.40;;;;;;1890733;75;21146;-80
2022/04/04 02:47:35;;;;;;;17.40;6.90;;;23.30;68.20;;;;;;1890978;75;21581;-78
2022/04/04 02:50:08;;;;;;;11.48;6.92;;;23.30;66.10;;;;;;1899644;75;21068;-80
2022/04/04 02:52:39;;;;;;;11.60;6.15;;;23.30;66.40;;;;;;1887642;75;21159;-80
2022/04/04 02:57:42;;;;;;;11.50;6.00;;;23.40;67.20;;;;;;1882253;75;21103;-79
2022/04/04 03:00:14;;;;;;;15.98;6.83;;;23.50;64.60;;;;;;1894094;75;21145;-80
2022/04/04 03:02:47;;;;;;;9.50;5.95;;;23.60;65.10;;;;;;1894273;75;21086;-79
2022/04/04 03:05:18;;;;;;;11.20;6.05;;;23.60;65.20;;;;;;1898188;75;21530;-80
2022/04/04 03:07:50;;;;;;;20.05;5.97;;;23.70;62.60;;;;;;1897113;75;21674;-79
2022/04/04 03:10:21;;;;;;;17.67;6.55;;;23.80;62.80;;;;;;1887192;75;21082;-82
2022/04/04 03:12:54;;;;;;;16.93;6.40;;;23.90;63.70;;;;;;1900295;75;21169;-80
2022/04/04 03:15:26;;;;;;;12.05;6.08;;;24.00;63.00;;;;;;1897598;75;21604;-81
2022/04/04 03:17:58;;;;;;;12.82;6.20;;;24.10;63.70;;;;;;1872283;76;21184;-80
2022/04/04 03:20:31;;;;;;;15.95;6.72;;;24.30;62.80;;;;;;1880199;76;21567;-80
2022/04/04 03:23:02;;;;;;;14.13;7.08;;;24.50;62.80;;;;;;1880932;76;21115;-80
2022/04/04 03:25:33;;;;;;;14.23;6.75;;;24.80;62.30;;;;;;1846323;76;21520;-81
2022/04/04 03:28:04;;;;;;;11.28;6.45;;;25.00;61.30;;;;;;1848594;76;21089;-79
2022/04/04 03:30:35;;;;;;;18.65;6.75;;;25.30;61.40;;;;;;1847206;76;21101;-80
2022/04/04 03:33:06;;;;;;;12.88;6.42;;;25.40;59.50;;;;;;1883278;75;21076;-80
2022/04/04 03:35:37;;;;;;;15.50;5.95;;;25.50;59.00;;;;;;1825065;76;21195;-80
2022/04/04 03:38:10;;;;;;;10.95;5.60;;;25.60;57.70;;;;;;1841415;78;21160;-79
2022/04/04 03:40:41;;;;;;;11.50;5.70;;;25.50;58.40;;;;;;1871397;76;21118;-81
2022/04/04 03:43:13;;;;;;;10.75;5.80;;;25.50;57.60;;;;;;1840455;78;21059;-80
2022/04/04 03:45:45;;;;;;;14.70;5.67;;;25.50;57.80;;;;;;1892430;75;21546;-79
2022/04/04 03:48:16;;;;;;;17.30;6.22;;;25.50;58.70;;;;;;1838977;76;21091;-81
2022/04/04 03:50:51;;;;;;;17.67;6.37;;;25.50;58.40;;;;;;1874097;76;21088;-80
2022/04/04 03:53:19;;;;;;;11.08;5.97;;;25.50;58.20;;;;;;1886448;76;21215;-80
2022/04/04 03:55:51;;;;;;;12.82;6.65;;;25.50;57.00;;;;;;1837947;77;21256;-79
2022/04/04 03:58:22;;;;;;;13.95;6.45;;;25.60;58.30;;;;;;1812049;77;21150;-79
2022/04/04 04:00:53;;;;;;;12.07;6.10;;;25.70;59.00;;;;;;1808133;78;21096;-79
2022/04/04 04:03:24;;;;;;;11.03;5.75;;;25.80;58.50;;;;;;1879344;76;21145;-80
2022/04/04 04:06:11;;;;;;;10.30;5.55;;;25.90;57.80;;;;;;1841330;78;21093;-79
2022/04/04 04:08:27;;;;;;;12.20;6.03;;;26.00;57.80;;;;;;1887521;75;21148;-80
2022/04/04 04:10:58;;;;;;;13.78;6.30;;;26.10;58.30;;;;;;1840450;78;21134;-80
2022/04/04 04:13:30;;;;;;;8.90;5.42;;;26.30;67.00;;;;;;1885475;75;21221;-81
2022/04/04 04:16:02;;;;;;;8.88;5.85;;;26.60;90.40;;;;;;1880814;76;21054;-80
2022/04/04 04:18:34;;;;;;;11.38;5.92;;;26.60;81.20;;;;;;1816021;77;21151;-80
2022/04/04 04:21:06;;;;;;;14.80;5.70;;;26.80;63.20;;;;;;1873216;75;21123;-80
2022/04/04 04:23:40;;;;;;;10.58;5.65;;;26.70;56.40;;;;;;1854533;77;21098;-80
2022/04/04 04:26:13;;;;;;;16.15;6.28;;;26.80;57.80;;;;;;1855556;77;21197;-80
2022/04/04 04:28:46;;;;;;;11.65;5.67;;;26.90;56.70;;;;;;1855109;75;21177;-80
2022/04/04 04:31:18;;;;;;;12.82;6.05;;;27.00;55.90;;;;;;1868366;75;22214;-79
2022/04/04 04:33:49;;;;;;;11.30;5.62;;;27.10;55.90;;;;;;1879193;75;21170;-79
2022/04/04 04:36:20;;;;;;;10.08;5.35;;;27.10;54.60;;;;;;1855503;77;21641;-79
2022/04/04 04:38:56;;;;;;;12.50;4.95;;;27.20;54.50;;;;;;1879819;75;21154;-80
2022/04/04 04:41:27;;;;;;;11.15;5.72;;;27.20;54.10;;;;;;1889491;74;21081;-80
2022/04/04 04:43:58;;;;;;;10.63;6.12;;;27.20;54.20;;;;;;1894397;76;21591;-80
2022/04/04 04:46:30;;;;;;;10.78;5.60;;;27.20;55.40;;;;;;1894457;76;21669;-79
2022/04/04 04:49:01;;;;;;;15.68;5.67;;;27.40;53.80;;;;;;1894486;76;21575;-79
2022/04/04 04:51:32;;;;;;;13.40;5.17;;;27.40;52.70;;;;;;1894394;76;21053;-81
2022/04/04 04:54:04;;;;;;;10.15;5.72;;;27.40;53.70;;;;;;1894483;76;21549;-80
2022/04/04 04:56:35;;;;;;;12.37;5.47;;;27.40;53.20;;;;;;1894410;76;21582;-80
2022/04/04 04:59:06;;;;;;;12.23;5.12;;;27.60;58.40;;;;;;1893649;76;21144;-80
2022/04/04 05:01:37;;;;;;;10.50;5.40;;;27.50;53.10;;;;;;1864710;75;21201;-80
2022/04/04 05:04:08;;;;;;;11.03;5.30;;;27.50;53.50;;;;;;1882985;74;21195;-80
2022/04/04 05:06:40;;;;;;;9.93;5.20;;;27.60;55.40;;;;;;1894748;75;21079;-80
2022/04/04 05:09:10;;;;;;;12.80;5.00;;;27.60;53.40;;;;;;1890116;75;21151;-81
2022/04/04 05:11:43;;;;;;;10.75;5.78;;;27.70;60.70;;;;;;1888410;76;21151;-79
2022/04/04 05:14:17;;;;;;;9.53;5.17;;;27.80;57.50;;;;;;1888393;75;21526;-81
2022/04/04 05:16:48;;;;;;;13.93;5.85;;;27.90;57.80;;;;;;1858959;75;21550;-81
2022/04/04 05:19:20;;;;;;;10.32;5.35;;;28.00;60.00;;;;;;1871715;75;21159;-80
2022/04/04 05:21:52;;;;;;;9.73;5.55;;;28.10;58.70;;;;;;1872667;76;21612;-79
2022/04/04 05:24:25;;;;;;;14.93;6.08;;;28.20;55.60;;;;;;1871728;76;21151;-79
2022/04/04 05:26:57;;;;;;;9.23;5.80;;;28.20;54.60;;;;;;1868419;77;21564;-80
2022/04/04 05:29:28;;;;;;;13.22;6.12;;;28.10;52.10;;;;;;1869296;76;21203;-79
2022/04/04 05:31:59;;;;;;;11.75;5.78;;;28.20;51.40;;;;;;1868956;77;21209;-79
2022/04/04 05:34:30;;;;;;;13.53;5.45;;;28.30;58.20;;;;;;1867721;76;21205;-80
2022/04/04 05:37:04;;;;;;;9.48;5.62;;;28.30;50.80;;;;;;1863941;77;21228;-80
2022/04/04 05:39:39;;;;;;;12.95;5.20;;;28.30;50.50;;;;;;1863330;76;21111;-79
2022/04/04 05:42:09;;;;;;;12.20;5.20;;;28.30;50.50;;;;;;1863941;77;21508;-81
2022/04/04 05:44:40;;;;;;;11.63;4.70;;;28.40;49.60;;;;;;1864931;75;21143;-79
2022/04/04 05:47:13;;;;;;;11.43;5.33;;;28.40;51.20;;;;;;1864142;76;21204;-80
2022/04/04 05:49:43;;;;;;;10.48;5.67;;;28.40;50.60;;;;;;1825261;78;21172;-79
2022/04/04 05:52:15;;;;;;;9.75;5.25;;;28.40;50.30;;;;;;1828358;78;21107;-79
2022/04/04 05:54:57;;;;;;;12.05;5.30;;;28.40;51.40;;;;;;1850160;75;21511;-80
2022/04/04 05:57:18;;;;;;;14.75;5.42;;;28.50;50.10;;;;;;1864788;76;21096;-80
2022/04/04 05:59:49;;;;;;;8.55;4.92;;;28.50;50.00;;;;;;1857735;77;21175;-80
2022/04/04 06:02:21;;;;;;;9.83;4.90;;;28.50;49.90;;;;;;1851604;75;21111;-80
2022/04/04 06:04:52;;;;;;;10.30;5.10;;;28.50;49.70;;;;;;1841026;76;21072;-80
2022/04/04 06:07:26;;;;;;;14.07;5.28;;;28.50;49.60;;;;;;1868819;76;21068;-79
2022/04/04 06:09:57;;;;;;;11.95;5.90;;;28.50;50.10;;;;;;1859326;76;21101;-80
2022/04/04 06:12:29;;;;;;;8.25;5.12;;;28.50;50.30;;;;;;1833829;77;21151;-80
2022/04/04 06:15:00;;;;;;;14.10;5.95;;;28.50;50.50;;;;;;1867886;76;21086;-78
2022/04/04 06:17:32;;;;;;;13.25;6.05;;;28.60;50.60;;;;;;1863768;77;21189;-79
2022/04/04 06:20:03;;;;;;;11.28;5.22;;;28.60;49.50;;;;;;1864841;75;21067;-80
2022/04/04 06:22:36;;;;;;;11.45;5.47;;;28.60;49.70;;;;;;1847600;77;21068;-82
2022/04/04 06:25:08;;;;;;;10.95;5.50;;;28.60;50.20;;;;;;1873591;75;21068;-80
2022/04/04 06:27:42;;;;;;;11.18;5.47;;;28.60;50.10;;;;;;1873702;75;21080;-82
2022/04/04 06:30:15;;;;;;;11.22;5.35;;;28.70;49.70;;;;;;1858439;76;21084;-79
2022/04/04 06:32:46;;;;;;;10.15;5.58;;;28.60;50.00;;;;;;1863830;75;21384;-80
2022/04/04 06:35:17;;;;;;;10.85;5.83;;;28.60;50.60;;;;;;1897047;75;21088;-79
2022/04/04 06:37:48;;;;;;;11.05;5.42;;;28.70;50.00;;;;;;1867989;75;21153;-81
2022/04/04 06:40:21;;;;;;;10.38;4.72;;;28.80;50.30;;;;;;1848816;77;21055;-80
2022/04/04 06:42:51;;;;;;;11.30;5.33;;;28.80;50.40;;;;;;1848734;77;21201;-80
2022/04/04 06:45:25;;;;;;;13.80;4.90;;;28.80;49.70;;;;;;1883945;75;21131;-80
2022/04/04 06:47:56;;;;;;;10.18;5.08;;;28.80;49.90;;;;;;1897072;75;21069;-80
2022/04/04 06:50:27;;;;;;;8.30;4.70;;;28.80;50.20;;;;;;1895496;75;21041;-80
2022/04/04 06:52:58;;;;;;;12.20;5.03;;;28.80;49.90;;;;;;1871051;76;21123;-80
2022/04/04 06:55:31;;;;;;;9.28;5.20;;;28.80;49.50;;;;;;1895083;74;21112;-79
2022/04/04 06:58:02;;;;;;;8.85;5.05;;;28.80;50.00;;;;;;1897515;75;21186;-80
2022/04/04 07:00:35;;;;;;;12.70;5.08;;;28.70;50.50;;;;;;1897793;75;21139;-81
2022/04/04 07:03:08;;;;;;;10.60;5.40;;;28.70;50.30;;;;;;1896957;75;21053;-81
2022/04/04 07:05:38;;;;;;;9.30;4.45;;;28.70;50.70;;;;;;1867392;75;21629;-78
2022/04/04 07:08:10;;;;;;;9.75;4.55;;;28.70;50.70;;;;;;1847864;77;21597;-80
2022/04/04 07:10:41;;;;;;;13.58;5.20;;;28.70;50.60;;;;;;1850429;76;21118;-81
2022/04/04 07:13:12;;;;;;;11.18;4.87;;;28.70;50.30;;;;;;1846649;76;21208;-79
2022/04/04 07:15:43;;;;;;;10.30;4.83;;;28.70;50.70;;;;;;1861329;77;21636;-79
2022/04/04 07:18:14;;;;;;;8.48;4.72;;;28.60;51.20;;;;;;1865130;77;21120;-80
2022/04/04 07:20:45;;;;;;;12.47;5.12;;;28.60;50.80;;;;;;1897331;75;21137;-80
2022/04/04 07:23:16;;;;;;;10.18;4.45;;;28.50;51.10;;;;;;1899790;75;21572;-79
2022/04/04 07:25:49;;;;;;;9.60;4.60;;;28.60;50.30;;;;;;1912590;75;21484;-79
2022/04/04 07:28:22;;;;;;;9.38;4.67;;;28.50;51.10;;;;;;1900782;74;21615;-79
2022/04/04 07:30:54;;;;;;;8.55;4.58;;;28.50;51.20;;;;;;1878079;75;21669;-79
2022/04/04 07:33:24;;;;;;;10.18;5.00;;;28.50;51.20;;;;;;1893784;75;21116;-79
2022/04/04 07:35:55;;;;;;;10.30;4.55;;;28.50;51.50;;;;;;1899955;75;21103;-80
2022/04/04 07:38:26;;;;;;;10.75;5.00;;;28.50;51.30;;;;;;1899821;74;21070;-80
2022/04/04 07:40:58;;;;;;;10.55;4.65;;;28.50;50.90;;;;;;1901048;75;21134;-81
2022/04/04 07:43:29;;;;;;;10.23;4.45;;;28.50;51.10;;;;;;1897550;75;21069;-80
2022/04/04 07:46:00;;;;;;;10.15;5.08;;;28.40;51.70;;;;;;1896618;75;21122;-81
2022/04/04 07:48:32;;;;;;;13.25;5.12;;;28.40;51.80;;;;;;1901598;75;21397;-81
2022/04/04 07:51:03;;;;;;;12.68;4.80;;;28.40;52.10;;;;;;1910886;75;21140;-79
2022/04/04 07:53:34;;;;;;;12.07;4.83;;;28.40;52.40;;;;;;1909378;75;21086;-79
2022/04/04 07:56:06;;;;;;;7.87;4.55;;;28.40;52.40;;;;;;1899907;75;21081;-78
2022/04/04 07:58:37;;;;;;;9.10;5.17;;;28.40;52.00;;;;;;1900794;75;21086;-79
2022/04/04 08:01:18;;;;;;;13.40;4.62;;;28.40;51.70;;;;;;1895286;75;21049;-80
2022/04/04 08:03:50;;;;;;;10.95;5.20;;;28.40;51.60;;;;;;1892372;75;21512;-80
2022/04/04 08:06:21;;;;;;;13.53;5.20;;;28.40;51.50;;;;;;1899743;75;21220;-81
2022/04/04 08:08:52;;;;;;;6.65;4.55;;;28.40;51.40;;;;;;1899867;75;21163;-79
2022/04/04 08:11:23;;;;;;;8.93;4.75;;;28.40;51.90;;;;;;1898226;75;21146;-81
2022/04/04 08:13:54;;;;;;;9.15;4.80;;;28.40;52.20;;;;;;1891291;75;21115;-79
2022/04/04 08:16:26;;;;;;;12.93;4.97;;;28.40;51.40;;;;;;1898960;75;21528;-80
2022/04/04 08:18:57;;;;;;;10.05;4.25;;;28.40;52.50;;;;;;1900139;75;21124;-79
2022/04/04 08:21:28;;;;;;;9.15;5.45;;;28.40;52.40;;;;;;1882031;75;21146;-78
2022/04/04 08:24:00;;;;;;;10.03;4.85;;;28.40;52.60;;;;;;1878817;76;21573;-80
2022/04/04 08:26:31;;;;;;;10.85;4.85;;;28.40;52.60;;;;;;1879071;76;21142;-79
2022/04/04 08:29:03;;;;;;;12.78;5.25;;;28.40;51.80;;;;;;1880127;75;21158;-80
2022/04/04 08:31:34;;;;;;;16.85;4.83;;;28.40;52.00;;;;;;1892383;75;21167;-79
2022/04/04 08:34:05;;;;;;;12.90;5.33;;;28.40;52.30;;;;;;1909130;75;21268;-78
2022/04/04 08:36:37;;;;;;;8.50;4.67;;;28.40;52.50;;;;;;1897719;75;21270;-80
2022/04/04 08:39:08;;;;;;;11.75;4.90;;;28.40;52.00;;;;;;1886613;75;21114;-80
2022/04/04 08:41:40;;;;;;;12.00;5.05;;;28.40;52.50;;;;;;1886048;75;21156;-81
2022/04/04 08:44:29;;;;;;;10.60;5.12;;;28.40;53.20;;;;;;1895061;75;21141;-80
2022/04/04 08:47:03;;;;;;;9.03;5.08;;;28.40;52.10;;;;;;1953106;73;21529;-81
2022/04/04 08:49:35;;;;;;;9.68;4.80;;;28.40;53.00;;;;;;1948511;73;21169;-80
2022/04/04 08:52:07;;;;;;;12.30;5.33;;;28.40;52.40;;;;;;1948968;73;21525;-80
2022/04/04 08:54:38;;;;;;;11.45;5.10;;;28.40;52.40;;;;;;1954787;73;21517;-79
2022/04/04 08:57:09;;;;;;;12.47;5.30;;;28.40;52.20;;;;;;1958602;72;21514;-80
2022/04/04 08:59:40;;;;;;;12.05;5.67;;;28.30;52.00;;;;;;1949846;73;21154;-79
2022/04/04 09:02:12;;;;;;;9.58;5.40;;;28.30;52.30;;;;;;1955029;73;21078;-80
2022/04/04 09:04:43;;;;;;;9.13;4.78;;;28.30;52.10;;;;;;1955289;73;21112;-81
2022/04/04 09:07:15;;;;;;;9.60;4.58;;;28.30;52.30;;;;;;1945664;73;21067;-80
2022/04/04 09:09:49;;;;;;;13.10;5.70;;;28.30;52.40;;;;;;1929993;74;21213;-81
2022/04/04 09:12:21;;;;;;;10.60;5.47;;;28.30;52.60;;;;;;1929005;73;22547;-80
2022/04/04 09:14:56;;;;;;;9.53;4.85;;;28.20;53.00;;;;;;1935548;73;21148;-80
2022/04/04 09:17:30;;;;;;;10.60;4.80;;;28.20;53.20;;;;;;1936874;73;21537;-81
2022/04/04 09:20:03;;;;;;;10.43;4.90;;;28.20;53.60;;;;;;1935879;73;21054;-80
2022/04/04 09:22:34;;;;;;;13.22;5.58;;;28.20;53.60;;;;;;1937124;73;21065;-79
2022/04/04 09:25:05;;;;;;;10.10;5.65;;;28.10;53.20;;;;;;1941506;73;21196;-81
2022/04/04 09:27:37;;;;;;;9.45;5.33;;;28.10;52.90;;;;;;1944691;73;21100;-79
2022/04/04 09:30:10;;;;;;;11.25;5.37;;;28.10;52.90;;;;;;1947231;73;21165;-81
2022/04/04 09:32:42;;;;;;;8.88;5.25;;;28.10;53.40;;;;;;1939742;73;21181;-80
2022/04/04 09:35:15;;;;;;;11.22;5.80;;;28.00;52.80;;;;;;1941092;73;21123;-80
2022/04/04 09:37:48;;;;;;;9.73;5.60;;;28.00;53.20;;;;;;1939333;73;21044;-81
2022/04/04 09:40:24;;;;;;;10.13;5.72;;;28.00;52.90;;;;;;1942133;73;21173;-81
2022/04/04 09:42:54;;;;;;;11.85;4.97;;;28.00;53.10;;;;;;1875422;76;21110;-80
2022/04/04 09:45:30;;;;;;;11.10;5.47;;;28.00;53.70;;;;;;1917828;74;21633;-78
2022/04/04 09:48:02;;;;;;;10.90;5.60;;;28.00;53.50;;;;;;1908332;75;21083;-79
2022/04/04 09:50:35;;;;;;;10.35;5.70;;;27.90;53.50;;;;;;1847008;77;21151;-80
2022/04/04 09:53:10;;;;;;;11.12;5.15;;;27.90;53.70;;;;;;1859411;76;21227;-81
2022/04/04 09:55:44;;;;;;;8.15;4.92;;;27.90;54.00;;;;;;1824734;78;21139;-81
2022/04/04 09:58:17;;;;;;;10.20;5.62;;;27.90;53.90;;;;;;1845816;77;21116;-81
2022/04/04 10:00:52;;;;;;;10.82;6.08;;;27.90;54.20;;;;;;1869090;76;21126;-82
2022/04/04 10:03:24;;;;;;;10.50;6.35;;;27.90;54.00;;;;;;1924935;73;21096;-80
2022/04/04 10:05:57;;;;;;;12.10;5.80;;;27.90;54.20;;;;;;1932118;73;21077;-80
2022/04/04 10:08:30;;;;;;;10.23;5.50;;;27.90;54.40;;;;;;1917890;74;21401;-80
2022/04/04 10:11:03;;;;;;;13.18;6.03;;;27.80;56.70;;;;;;1931542;74;21147;-80
2022/04/04 10:13:35;;;;;;;12.82;6.08;;;27.80;55.10;;;;;;1922805;74;21131;-80
2022/04/04 10:16:09;;;;;;;12.60;5.87;;;27.80;54.20;;;;;;1917536;74;21570;-80
2022/04/04 10:18:42;;;;;;;11.45;6.22;;;27.80;54.20;;;;;;1931811;73;21607;-80
2022/04/04 10:21:14;;;;;;;14.53;6.78;;;27.80;54.50;;;;;;1934060;74;21590;-80
2022/04/04 10:23:46;;;;;;;11.85;6.72;;;27.70;54.80;;;;;;1915515;74;21530;-81
2022/04/04 10:26:18;;;;;;;12.35;6.67;;;27.70;55.10;;;;;;1933427;74;21567;-80
2022/04/04 10:28:50;;;;;;;14.83;6.67;;;27.70;55.00;;;;;;1921964;74;21488;-81
2022/04/04 10:31:26;;;;;;;11.83;6.25;;;27.70;55.20;;;;;;1932862;74;21104;-81
2022/04/04 10:33:59;;;;;;;15.10;6.60;;;27.70;55.50;;;;;;1920565;74;21061;-80
2022/04/04 10:36:29;;;;;;;9.20;6.22;;;27.60;55.60;;;;;;1921642;74;21557;-80
2022/04/04 10:39:00;;;;;;;11.90;6.22;;;27.60;55.20;;;;;;1898829;74;21159;-79
2022/04/04 10:41:38;;;;;;;12.58;6.50;;;27.60;55.30;;;;;;1905697;74;21570;-79
2022/04/04 10:44:10;;;;;;;14.15;6.20;;;27.60;55.60;;;;;;1901431;75;21233;-80
2022/04/04 10:46:43;;;;;;;14.80;6.22;;;27.50;55.70;;;;;;1892714;75;21536;-80
2022/04/04 10:49:16;;;;;;;12.28;6.45;;;27.50;55.60;;;;;;1871859;76;21144;-81
2022/04/04 10:51:49;;;;;;;13.48;6.75;;;27.50;55.70;;;;;;1873747;76;21073;-80
2022/04/04 10:54:22;;;;;;;10.18;6.90;;;27.50;55.90;;;;;;1916141;74;21812;-80
2022/04/04 10:56:55;;;;;;;13.13;7.40;;;27.50;56.00;;;;;;1915566;74;21099;-80
2022/04/04 10:59:28;;;;;;;15.20;7.92;;;27.50;57.00;;;;;;1919131;74;21036;-79
2022/04/04 11:02:02;;;;;;;10.90;6.83;;;27.40;56.60;;;;;;1924202;74;21583;-81
2022/04/04 11:04:36;;;;;;;11.60;6.70;;;27.40;56.60;;;;;;1929320;74;21139;-80
2022/04/04 11:09:50;;;;;;;11.38;6.75;;;27.40;56.70;;;;;;1929708;74;21555;-79
2022/04/04 11:12:18;;;;;;;10.95;6.67;;;27.40;56.80;;;;;;1929241;74;21543;-80
2022/04/04 11:14:58;;;;;;;13.28;7.28;;;27.30;56.70;;;;;;1929376;74;21135;-80
2022/04/04 11:22:37;;;;;;;13.98;7.30;;;27.30;57.20;;;;;;1912436;74;21175;-80
2022/04/04 11:25:10;;;;;;;13.88;8.25;;;27.30;57.30;;;;;;1915501;74;21542;-80
2022/04/04 11:27:41;;;;;;;13.15;7.78;;;27.20;57.40;;;;;;1917417;74;21215;-79
2022/04/04 11:30:13;;;;;;;14.75;8.10;;;27.20;57.40;;;;;;1892650;74;21728;-79
2022/04/04 11:32:47;;;;;;;15.05;8.00;;;27.20;57.40;;;;;;1913924;74;21601;-79
2022/04/04 11:35:22;;;;;;;14.65;7.15;;;27.20;57.60;;;;;;1917350;74;21136;-80
2022/04/04 11:37:55;;;;;;;15.83;8.53;;;27.20;57.80;;;;;;1912620;74;21534;-79
2022/04/04 11:40:34;;;;;;;17.12;8.50;;;27.10;57.90;;;;;;1918200;74;21126;-79
2022/04/04 11:43:02;;;;;;;17.48;8.58;;;27.10;58.00;;;;;;1917644;74;21060;-79
2022/04/04 11:45:41;;;;;;;11.33;7.33;;;27.10;58.20;;;;;;1915838;73;21170;-80
2022/04/04 11:48:16;;;;;;;14.15;7.42;;;27.10;58.30;;;;;;1911605;73;21125;-81
2022/04/04 11:50:49;;;;;;;15.13;8.00;;;27.10;58.40;;;;;;1902510;74;21054;-80
2022/04/04 11:53:25;;;;;;;18.82;7.97;;;27.00;58.30;;;;;;1922729;74;21104;-80
2022/04/04 11:56:03;;;;;;;15.25;8.05;;;27.00;58.40;;;;;;1896162;74;21597;-79
2022/04/04 11:58:28;;;;;;;14.80;7.87;;;27.00;58.50;;;;;;1917247;74;21145;-79
2022/04/04 12:01:04;;;;;;;14.05;7.85;;;26.90;58.60;;;;;;1920773;74;21497;-79
2022/04/04 12:03:40;;;;;;;12.85;8.10;;;26.90;58.60;;;;;;1904024;74;21123;-79
2022/04/04 12:06:11;;;;;;;21.35;8.33;;;26.90;58.70;;;;;;1915274;74;21069;-80
2022/04/04 12:08:47;;;;;;;16.42;7.95;;;26.90;58.80;;;;;;1919176;74;21192;-79
2022/04/04 12:11:24;;;;;;;18.55;7.67;;;26.90;58.90;;;;;;1921640;73;21565;-79
2022/04/04 12:14:00;;;;;;;13.90;8.08;;;26.80;59.00;;;;;;1830727;77;21092;-79
2022/04/04 12:16:32;;;;;;;16.95;8.35;;;26.80;59.30;;;;;;1813832;78;21116;-81
2022/04/04 12:19:09;;;;;;;19.85;9.13;;;26.80;59.50;;;;;;1852132;77;21141;-79
2022/04/04 12:21:42;;;;;;;19.75;9.20;;;26.80;59.60;;;;;;1919473;74;21084;-79
2022/04/04 12:26:57;;;;;;;25.52;10.70;;;26.80;59.70;;;;;;1946349;73;21895;-81
2022/04/04 12:29:28;;;;;;;20.75;11.10;;;26.70;59.80;;;;;;1945887;73;21685;-80
2022/04/04 12:32:00;;;;;;;21.57;11.55;;;26.70;59.80;;;;;;1947894;73;21127;-79
2022/04/04 12:34:35;;;;;;;22.98;11.38;;;26.70;60.00;;;;;;1948313;73;21064;-79
2022/04/04 12:37:07;;;;;;;20.40;10.72;;;26.70;60.30;;;;;;1948282;73;21181;-79
2022/04/04 12:39:38;;;;;;;19.07;9.38;;;26.70;60.30;;;;;;1948938;73;21072;-78
2022/04/04 12:42:10;;;;;;;24.43;11.60;;;26.60;60.30;;;;;;1949182;73;21631;-80
2022/04/04 12:44:44;;;;;;;21.07;10.93;;;26.60;61.10;;;;;;1949090;73;21044;-79
2022/04/04 12:47:23;;;;;;;22.70;11.03;;;26.60;61.80;;;;;;1942616;73;21190;-80
2022/04/04 12:50:19;;;;;;;22.05;10.68;;;26.60;61.50;;;;;;1949259;73;21606;-83
2022/04/04 12:52:44;;;;;;;16.42;10.13;;;26.60;61.60;;;;;;1904605;74;21125;-78
2022/04/04 12:55:20;;;;;;;20.27;10.63;;;26.60;61.60;;;;;;1910416;75;21089;-80
2022/04/04 12:57:52;;;;;;;21.95;10.95;;;26.60;62.20;;;;;;1911868;75;21518;-80
2022/04/04 13:00:28;;;;;;;20.85;10.78;;;26.60;62.50;;;;;;1911228;75;21160;-79
2022/04/04 13:03:03;;;;;;;19.65;10.08;;;26.50;62.50;;;;;;1879902;74;21077;-80
2022/04/04 13:05:37;;;;;;;19.85;10.85;;;26.50;62.40;;;;;;1908885;75;21141;-80
2022/04/04 13:08:10;;;;;;;25.40;11.10;;;26.60;62.60;;;;;;1909533;75;21089;-80
2022/04/04 13:10:41;;;;;;;21.82;10.43;;;26.50;62.70;;;;;;1910080;75;21574;-80
2022/04/04 13:13:15;;;;;;;22.55;10.55;;;26.50;63.30;;;;;;1910944;75;21057;-80